createdAt,value
2019-04-28T00:00:43.401Z,101203.73
2019-04-28T00:03:47.279Z,101200.38
2019-04-28T00:06:51.534Z,101196.44
2019-04-28T00:09:56.769Z,101197.41
2019-04-28T00:13:01.044Z,101194.91
2019-04-28T00:16:06.658Z,101189.53
2019-04-28T00:19:11.025Z,101193.07
2019-04-28T00:22:20.999Z,101191.78
2019-04-28T00:25:28.151Z,101193.91
2019-04-28T00:28:33.545Z,101197.50
2019-04-28T00:31:37.412Z,101201.56
2019-04-28T00:34:41.438Z,101205.63
2019-04-28T00:37:45.313Z,101200.88
2019-04-28T00:40:49.145Z,101201.77
2019-04-28T00:43:52.979Z,101206.23
2019-04-28T00:46:56.792Z,101213.70
2019-04-28T00:50:02.121Z,101214.14
2019-04-28T00:53:06.214Z,101215.45
2019-04-28T00:56:11.774Z,101209.25
2019-04-28T00:59:15.596Z,101209.39
2019-04-28T01:02:31.347Z,101210.31
2019-04-28T01:05:35.195Z,101214.23
2019-04-28T01:08:39.016Z,101218.17
2019-04-28T01:11:42.821Z,101216.84
2019-04-28T01:14:46.653Z,101224.82
2019-04-28T01:18:00.740Z,101220.83
2019-04-28T01:21:04.901Z,101223.06
2019-04-28T01:24:09.510Z,101217.75
2019-04-28T01:27:35.884Z,101219.45
2019-04-28T01:30:59.903Z,101219.16
2019-04-28T01:34:22.821Z,101231.95
2019-04-28T01:37:26.741Z,101218.19
2019-04-28T01:40:30.643Z,101227.26
2019-04-28T01:43:34.542Z,101224.36
2019-04-28T01:46:39.871Z,101228.10
2019-04-28T01:49:43.889Z,101230.12
2019-04-28T01:52:49.523Z,101238.36
2019-04-28T01:55:53.271Z,101230.27
2019-04-28T01:58:57.090Z,101234.21
2019-04-28T02:02:01.052Z,101235.54
2019-04-28T02:05:06.401Z,101236.05
2019-04-28T02:08:10.332Z,101240.29
2019-04-28T02:11:14.188Z,101236.10
2019-04-28T02:14:19.566Z,101245.64
2019-04-28T02:17:23.594Z,101241.69
2019-04-28T02:20:27.421Z,101238.56
2019-04-28T02:23:32.339Z,101240.87
2019-04-28T02:26:36.196Z,101241.08
2019-04-28T02:29:41.745Z,101238.11
2019-04-28T02:32:45.560Z,101247.95
2019-04-28T02:35:51.139Z,101246.98
2019-04-28T02:38:55.098Z,101253.72
2019-04-28T02:42:01.346Z,101254.63
2019-04-28T02:45:05.264Z,101260.58
2019-04-28T02:48:13.332Z,101262.52
2019-04-28T02:51:23.802Z,101254.14
2019-04-28T02:54:30.359Z,101256.69
2019-04-28T02:57:33.305Z,101261.63
2019-04-28T03:00:37.223Z,101269.59
2019-04-28T03:03:41.193Z,101265.94
2019-04-28T03:06:45.252Z,101264.14
2019-04-28T03:09:51.764Z,101269.11
2019-04-28T03:12:54.812Z,101266.23
2019-04-28T03:16:01.154Z,101257.89
2019-04-28T03:19:04.521Z,101262.16
2019-04-28T03:22:11.252Z,101271.28
2019-04-28T03:25:27.422Z,101277.27
2019-04-28T03:28:51.370Z,101275.16
2019-04-28T03:32:22.789Z,101274.59
2019-04-28T03:35:06.305Z,101274.32
2019-04-28T03:38:10.714Z,101275.80
2019-04-28T03:41:14.714Z,101277.81
2019-04-28T03:44:20.839Z,101275.16
2019-04-28T03:47:24.170Z,101279.70
2019-04-28T03:50:28.055Z,101275.22
2019-04-28T03:53:31.895Z,101282.58
2019-04-28T03:56:35.717Z,101280.39
2019-04-28T03:59:41.258Z,101283.55
2019-04-28T04:02:45.202Z,101282.35
2019-04-28T04:05:50.816Z,101284.22
2019-04-28T04:08:54.594Z,101291.23
2019-04-28T04:12:16.243Z,101295.92
2019-04-28T04:15:55.041Z,101301.42
2019-04-28T04:19:00.732Z,101298.02
2019-04-28T04:22:04.732Z,101300.31
2019-04-28T04:25:12.258Z,101304.70
2019-04-28T04:28:14.401Z,101301.77
2019-04-28T04:31:20.001Z,101305.32
2019-04-28T04:34:23.934Z,101310.93
2019-04-28T04:37:30.597Z,101310.69
2019-04-28T04:40:33.336Z,101312.31
2019-04-28T04:43:37.180Z,101308.81
2019-04-28T04:46:41.561Z,101314.66
2019-04-28T04:49:45.600Z,101314.06
2019-04-28T04:52:50.248Z,101323.10
2019-04-28T04:55:54.153Z,101334.51
2019-04-28T04:59:02.243Z,101336.25
2019-04-28T05:02:26.638Z,101335.08
2019-04-28T05:05:27.003Z,101335.63
2019-04-28T05:08:30.816Z,101341.44
2019-04-28T05:11:34.733Z,101336.47
2019-04-28T05:14:39.499Z,101338.52
2019-04-28T05:17:43.633Z,101342.13
2019-04-28T05:20:47.477Z,101345.81
2019-04-28T05:24:17.404Z,101356.38
2019-04-28T05:27:25.376Z,101364.20
2019-04-28T05:30:27.084Z,101359.32
2019-04-28T05:33:33.937Z,101362.94
2019-04-28T05:36:40.978Z,101368.30
2019-04-28T05:39:42.076Z,101371.80
2019-04-28T05:43:01.404Z,101374.45
2019-04-28T05:46:05.322Z,101365.47
2019-04-28T05:49:15.249Z,101363.09
2019-04-28T05:52:36.846Z,101364.55
2019-04-28T05:56:00.080Z,101367.50
2019-04-28T05:59:12.381Z,101369.58
2019-04-28T06:02:22.040Z,101376.79
2019-04-28T06:05:25.892Z,101378.90
2019-04-28T06:08:35.918Z,101380.70
2019-04-28T06:11:40.970Z,101378.52
2019-04-28T06:14:44.811Z,101387.41
2019-04-28T06:17:49.843Z,101389.64
2019-04-28T06:20:53.744Z,101400.31
2019-04-28T06:23:57.654Z,101399.05
2019-04-28T06:27:01.496Z,101407.31
2019-04-28T06:30:07.137Z,101410.19
2019-04-28T06:33:11.073Z,101400.18
2019-04-28T06:36:14.941Z,101407.31
2019-04-28T06:39:18.818Z,101407.73
2019-04-28T06:42:22.666Z,101408.09
2019-04-28T06:45:26.569Z,101414.25
2019-04-28T06:48:30.427Z,101429.61
2019-04-28T06:51:34.349Z,101423.55
2019-04-28T06:54:38.148Z,101423.39
2019-04-28T06:57:41.998Z,101434.44
2019-04-28T07:00:45.901Z,101434.98
2019-04-28T07:03:49.885Z,101437.69
2019-04-28T07:06:53.821Z,101447.48
2019-04-28T07:09:57.659Z,101443.36
2019-04-28T07:13:01.585Z,101447.55
2019-04-28T07:16:05.562Z,101449.84
2019-04-28T07:19:09.465Z,101453.76
2019-04-28T07:22:21.539Z,101456.72
2019-04-28T07:25:25.351Z,101458.20
2019-04-28T07:28:29.247Z,101458.20
2019-04-28T07:31:33.072Z,101457.13
2019-04-28T07:34:36.916Z,101461.10
2019-04-28T07:37:40.818Z,101464.31
2019-04-28T07:40:44.761Z,101460.39
2019-04-28T07:43:48.593Z,101464.97
2019-04-28T07:46:52.616Z,101466.23
2019-04-28T07:49:56.435Z,101463.63
2019-04-28T07:53:06.834Z,101471.04
2019-04-28T07:56:10.761Z,101476.80
2019-04-28T07:59:14.656Z,101487.82
2019-04-28T08:02:19.085Z,101488.19
2019-04-28T08:05:23.054Z,101486.07
2019-04-28T08:08:26.986Z,101489.99
2019-04-28T08:11:30.858Z,101492.73
2019-04-28T08:14:34.707Z,101492.28
2019-04-28T08:17:38.524Z,101495.43
2019-04-28T08:20:42.363Z,101492.47
2019-04-28T08:23:47.566Z,101496.34
2019-04-28T08:26:51.672Z,101506.78
2019-04-28T08:29:58.542Z,101504.58
2019-04-28T08:33:06.765Z,101511.57
2019-04-28T08:36:10.707Z,101510.80
2019-04-28T08:39:14.625Z,101513.80
2019-04-28T08:42:18.538Z,101517.02
2019-04-28T08:45:22.484Z,101516.88
2019-04-28T08:48:26.480Z,101527.36
2019-04-28T08:51:30.286Z,101531.36
2019-04-28T08:54:34.261Z,101533.17
2019-04-28T08:57:38.194Z,101536.96
2019-04-28T09:00:42.077Z,101541.78
2019-04-28T09:03:46.062Z,101541.94
2019-04-28T09:06:49.959Z,101554.95
2019-04-28T09:09:53.889Z,101552.70
2019-04-28T09:12:57.956Z,101558.45
2019-04-28T09:16:02.812Z,101561.80
2019-04-28T09:19:07.137Z,101562.41
2019-04-28T09:22:11.655Z,101566.33
2019-04-28T09:25:16.003Z,101567.39
2019-04-28T09:28:20.298Z,101576.75
2019-04-28T09:31:24.532Z,101576.88
2019-04-28T09:34:28.790Z,101587.53
2019-04-28T09:37:33.136Z,101586.61
2019-04-28T09:40:40.822Z,101581.42
2019-04-28T09:43:59.053Z,101575.03
2019-04-28T09:47:02.951Z,101571.04
2019-04-28T09:50:07.047Z,101561.83
2019-04-28T09:53:11.341Z,101567.12
2019-04-28T09:56:15.930Z,101577.27
2019-04-28T09:59:20.613Z,101578.89
2019-04-28T10:02:25.294Z,101576.09
2019-04-28T10:05:29.524Z,101573.98
2019-04-28T10:08:36.405Z,101570.42
2019-04-28T10:11:39.713Z,101575.80
2019-04-28T10:14:43.620Z,101579.66
2019-04-28T10:17:47.639Z,101588.03
2019-04-28T10:20:51.672Z,101579.80
2019-04-28T10:23:56.498Z,101578.53
2019-04-28T10:27:00.416Z,101581.48
2019-04-28T10:30:05.304Z,101587.48
2019-04-28T10:33:09.219Z,101581.75
2019-04-28T10:36:14.790Z,101566.63
2019-04-28T10:39:47.125Z,101571.94
2019-04-28T10:42:51.652Z,101574.51
2019-04-28T10:45:55.572Z,101583.63
2019-04-28T10:48:59.792Z,101598.23
2019-04-28T10:52:03.650Z,101604.03
2019-04-28T10:55:07.659Z,101607.50
2019-04-28T10:58:11.773Z,101616.25
2019-04-28T11:01:15.675Z,101619.97
2019-04-28T11:04:37.238Z,101620.72
2019-04-28T11:07:41.185Z,101627.31
2019-04-28T11:10:45.107Z,101624.86
2019-04-28T11:13:49.197Z,101627.94
2019-04-28T11:16:53.042Z,101634.81
2019-04-28T11:19:57.271Z,101642.10
2019-04-28T11:23:01.310Z,101638.19
2019-04-28T11:26:05.305Z,101641.41
2019-04-28T11:29:10.181Z,101640.33
2019-04-28T11:32:15.482Z,101640.98
2019-04-28T11:35:27.066Z,101652.30
2019-04-28T11:38:30.893Z,101655.46
2019-04-28T11:41:35.008Z,101661.20
2019-04-28T11:44:38.906Z,101667.64
2019-04-28T11:47:42.813Z,101667.30
2019-04-28T11:50:46.632Z,101668.27
2019-04-28T11:53:50.476Z,101670.09
2019-04-28T11:56:54.362Z,101672.61
2019-04-28T11:59:58.283Z,101674.42
2019-04-28T12:03:02.177Z,101680.60
2019-04-28T12:06:06.411Z,101676.95
2019-04-28T12:09:27.422Z,101679.61
2019-04-28T12:12:44.880Z,101689.88
2019-04-28T12:16:00.838Z,101693.03
2019-04-28T12:19:15.553Z,101696.46
2019-04-28T12:22:19.401Z,101704.08
2019-04-28T12:25:23.239Z,101705.34
2019-04-28T12:28:27.072Z,101711.81
2019-04-28T12:31:30.969Z,101709.09
2019-04-28T12:34:34.863Z,101707.11
2019-04-28T12:37:38.795Z,101714.11
2019-04-28T12:40:42.584Z,101723.63
2019-04-28T12:43:46.405Z,101717.95
2019-04-28T12:46:50.257Z,101722.25
2019-04-28T12:49:58.759Z,101721.08
2019-04-28T12:53:02.600Z,101728.09
2019-04-28T12:56:06.564Z,101732.77
2019-04-28T12:59:16.078Z,101737.71
2019-04-28T13:02:35.439Z,101739.41
2019-04-28T13:05:40.498Z,101744.67
2019-04-28T13:08:44.449Z,101740.00
2019-04-28T13:11:48.196Z,101746.83
2019-04-28T13:14:51.998Z,101749.09
2019-04-28T13:17:55.852Z,101747.85
2019-04-28T13:20:59.665Z,101756.06
2019-04-28T13:24:03.561Z,101754.22
2019-04-28T13:27:10.096Z,101762.41
2019-04-28T13:30:13.740Z,101766.82
2019-04-28T13:33:17.583Z,101766.45
2019-04-28T13:36:21.465Z,101768.58
2019-04-28T13:39:36.835Z,101769.58
2019-04-28T13:42:40.631Z,101771.52
2019-04-28T13:45:44.442Z,101770.20
2019-04-28T13:48:48.340Z,101778.03
2019-04-28T13:51:52.179Z,101775.08
2019-04-28T13:55:05.802Z,101777.88
2019-04-28T13:58:09.661Z,101774.70
2019-04-28T14:01:33.985Z,101774.61
2019-04-28T14:04:46.635Z,101780.30
2019-04-28T14:07:50.453Z,101777.40
2019-04-28T14:10:54.488Z,101781.91
2019-04-28T14:13:58.363Z,101790.50
2019-04-28T14:17:02.212Z,101788.78
2019-04-28T14:20:06.547Z,101795.84
2019-04-28T14:23:10.444Z,101799.92
2019-04-28T14:26:14.333Z,101807.20
2019-04-28T14:29:18.232Z,101811.14
2019-04-28T14:32:22.070Z,101810.67
2019-04-28T14:35:25.924Z,101817.14
2019-04-28T14:38:29.746Z,101810.88
2019-04-28T14:41:33.569Z,101817.19
2019-04-28T14:44:37.462Z,101824.25
2019-04-28T14:47:41.310Z,101818.20
2019-04-28T14:50:45.114Z,101826.48
2019-04-28T14:53:48.961Z,101815.20
2019-04-28T14:56:52.929Z,101826.64
2019-04-28T14:59:58.182Z,101825.48
2019-04-28T15:03:06.341Z,101827.59
2019-04-28T15:06:19.753Z,101825.88
2019-04-28T15:09:33.454Z,101827.16
2019-04-28T15:12:37.231Z,101824.20
2019-04-28T15:15:41.114Z,101824.20
2019-04-28T15:18:45.036Z,101827.12
2019-04-28T15:21:48.909Z,101826.77
2019-04-28T15:24:52.727Z,101838.08
2019-04-28T15:27:56.627Z,101839.59
2019-04-28T15:31:00.575Z,101848.14
2019-04-28T15:34:04.482Z,101850.93
2019-04-28T15:37:10.160Z,101855.20
2019-04-28T15:40:14.206Z,101857.66
2019-04-28T15:43:18.099Z,101866.36
2019-04-28T15:46:21.927Z,101862.07
2019-04-28T15:49:25.772Z,101871.50
2019-04-28T15:52:29.657Z,101871.73
2019-04-28T15:55:40.141Z,101875.00
2019-04-28T15:58:43.971Z,101869.91
2019-04-28T16:01:47.856Z,101873.21
2019-04-28T16:04:51.739Z,101867.90
2019-04-28T16:07:55.525Z,101878.31
2019-04-28T16:10:59.484Z,101878.44
2019-04-28T16:14:03.277Z,101873.98
2019-04-28T16:17:07.249Z,101879.30
2019-04-28T16:20:11.321Z,101884.02
2019-04-28T16:23:15.238Z,101878.44
2019-04-28T16:26:19.141Z,101885.50
2019-04-28T16:29:22.940Z,101889.10
2019-04-28T16:32:26.784Z,101891.64
2019-04-28T16:35:30.599Z,101896.01
2019-04-28T16:38:34.433Z,101901.23
2019-04-28T16:41:38.944Z,101899.39
2019-04-28T16:44:44.774Z,101908.91
2019-04-28T16:47:48.675Z,101900.47
2019-04-28T16:50:52.474Z,101911.86
2019-04-28T16:53:56.297Z,101913.10
2019-04-28T16:57:22.040Z,101910.62
2019-04-28T17:00:40.881Z,101912.03
2019-04-28T17:03:44.721Z,101916.78
2019-04-28T17:06:48.625Z,101925.35
2019-04-28T17:09:52.513Z,101925.62
2019-04-28T17:12:56.353Z,101923.44
2019-04-28T17:16:00.171Z,101926.17
2019-04-28T17:19:04.333Z,101933.71
2019-04-28T17:22:08.295Z,101933.36
2019-04-28T17:25:13.731Z,101938.20
2019-04-28T17:28:17.569Z,101942.27
2019-04-28T17:31:21.451Z,101941.87
2019-04-28T17:34:25.291Z,101944.09
2019-04-28T17:37:29.151Z,101945.70
2019-04-28T17:40:33.362Z,101950.12
2019-04-28T17:43:37.276Z,101945.16
2019-04-28T17:46:41.364Z,101944.53
2019-04-28T17:49:45.350Z,101952.53
2019-04-28T17:52:49.193Z,101956.37
2019-04-28T17:55:53.032Z,101954.75
2019-04-28T17:58:56.910Z,101959.56
2019-04-28T18:02:32.001Z,101962.19
2019-04-28T18:05:43.307Z,101955.62
2019-04-28T18:08:47.215Z,101967.03
2019-04-28T18:11:51.219Z,101962.66
2019-04-28T18:14:58.775Z,101972.31
2019-04-28T18:18:27.407Z,101975.97
2019-04-28T18:21:31.386Z,101970.51
2019-04-28T18:24:35.780Z,101979.98
2019-04-28T18:27:39.638Z,101971.12
2019-04-28T18:30:50.523Z,101971.55
2019-04-28T18:34:31.523Z,101977.33
2019-04-28T18:38:03.476Z,101979.02
2019-04-28T18:41:38.473Z,101986.16
2019-04-28T18:44:42.348Z,101993.85
2019-04-28T18:47:46.225Z,102001.84
2019-04-28T18:50:50.007Z,101996.81
2019-04-28T18:53:53.824Z,101999.63
2019-04-28T18:56:57.661Z,102013.38
2019-04-28T19:00:01.504Z,102009.08
2019-04-28T19:03:05.306Z,102016.61
2019-04-28T19:06:09.221Z,102014.44
2019-04-28T19:09:24.320Z,102024.62
2019-04-28T19:12:49.954Z,102027.70
2019-04-28T19:16:17.934Z,102034.36
2019-04-28T19:19:22.335Z,102032.52
2019-04-28T19:22:26.229Z,102032.96
2019-04-28T19:25:30.029Z,102035.70
2019-04-28T19:28:33.961Z,102037.51
2019-04-28T19:31:37.769Z,102038.81
2019-04-28T19:34:41.697Z,102044.52
2019-04-28T19:37:45.489Z,102036.64
2019-04-28T19:40:49.325Z,102042.41
2019-04-28T19:43:53.133Z,102045.52
2019-04-28T19:46:57.031Z,102044.66
2019-04-28T19:50:00.849Z,102043.32
2019-04-28T19:53:04.811Z,102051.34
2019-04-28T19:56:14.486Z,102052.22
2019-04-28T19:59:25.227Z,102051.38
2019-04-28T20:02:32.093Z,102050.47
2019-04-28T20:05:35.940Z,102054.83
2019-04-28T20:08:39.843Z,102061.09
2019-04-28T20:11:43.739Z,102055.77
2019-04-28T20:14:47.589Z,102064.61
2019-04-28T20:17:51.386Z,102068.65
2019-04-28T20:20:55.216Z,102077.91
2019-04-28T20:23:59.029Z,102075.73
2019-04-28T20:27:02.927Z,102078.81
2019-04-28T20:30:07.207Z,102086.77
2019-04-28T20:33:11.131Z,102088.98
2019-04-28T20:36:20.690Z,102093.42
2019-04-28T20:39:30.184Z,102096.96
2019-04-28T20:42:54.750Z,102086.78
2019-04-28T20:45:58.745Z,102091.65
2019-04-28T20:49:02.559Z,102088.59
2019-04-28T20:52:06.377Z,102085.07
2019-04-28T20:55:10.540Z,102088.16
2019-04-28T20:58:14.374Z,102087.27
2019-04-28T21:01:18.264Z,102093.90
2019-04-28T21:04:22.057Z,102099.62
2019-04-28T21:07:25.886Z,102100.52
2019-04-28T21:10:37.837Z,102102.73
2019-04-28T21:13:35.318Z,102103.61
2019-04-28T21:16:39.230Z,102111.09
2019-04-28T21:19:43.135Z,102113.33
2019-04-28T21:22:46.957Z,102107.58
2019-04-28T21:25:50.787Z,102114.63
2019-04-28T21:28:54.612Z,102117.27
2019-04-28T21:31:58.443Z,102116.38
2019-04-28T21:35:02.364Z,102113.28
2019-04-28T21:38:06.180Z,102109.75
2019-04-28T21:41:09.981Z,102116.80
2019-04-28T21:44:32.868Z,102118.09
2019-04-28T21:47:36.838Z,102114.97
2019-04-28T21:50:40.752Z,102110.96
2019-04-28T21:53:44.674Z,102111.83
2019-04-28T21:56:48.581Z,102110.55
2019-04-28T21:59:52.394Z,102112.83
2019-04-28T22:02:56.310Z,102115.50
2019-04-28T22:06:00.270Z,102118.58
2019-04-28T22:09:05.780Z,102119.02
2019-04-28T22:12:09.631Z,102122.98
2019-04-28T22:15:13.621Z,102120.80
2019-04-28T22:18:17.459Z,102126.08
2019-04-28T22:21:21.314Z,102124.33
2019-04-28T22:24:38.919Z,102127.41
2019-04-28T22:27:42.812Z,102133.17
2019-04-28T22:30:46.634Z,102135.37
2019-04-28T22:33:50.459Z,102141.11
2019-04-28T22:36:54.371Z,102140.22
2019-04-28T22:39:58.221Z,102138.91
2019-04-28T22:43:02.056Z,102140.64
2019-04-28T22:46:06.020Z,102138.45
2019-04-28T22:49:09.899Z,102134.92
2019-04-28T22:52:13.715Z,102142.86
2019-04-28T22:55:21.804Z,102136.22
2019-04-28T22:58:44.633Z,102147.70
2019-04-28T23:01:53.890Z,102148.15
2019-04-28T23:05:08.615Z,102147.27
2019-04-28T23:08:12.420Z,102152.54
2019-04-28T23:11:16.339Z,102150.34
2019-04-28T23:14:20.293Z,102141.48
2019-04-28T23:17:24.465Z,102142.74
2019-04-28T23:20:30.095Z,102141.87
2019-04-28T23:23:33.905Z,102146.34
2019-04-28T23:26:37.904Z,102155.19
2019-04-28T23:29:41.889Z,102152.55
2019-04-28T23:32:45.712Z,102161.42
2019-04-28T23:35:49.557Z,102158.76
2019-04-28T23:38:53.438Z,102160.52
2019-04-28T23:42:05.089Z,102163.17
2019-04-28T23:45:12.111Z,102160.08
2019-04-28T23:48:14.635Z,102161.41
2019-04-28T23:51:26.977Z,102164.49
2019-04-28T23:54:30.803Z,102164.52
2019-04-28T23:57:34.650Z,102169.80
